createdAt,value
2018-05-01T00:01:52.700Z,87.70
2018-05-01T00:04:28.041Z,87.50
2018-05-01T00:07:02.809Z,87.90
2018-05-01T00:09:38.842Z,86.50
2018-05-01T00:12:13.697Z,86.50
2018-05-01T00:14:48.636Z,86.00
2018-05-01T00:17:47.147Z,85.70
2018-05-01T00:20:22.044Z,85.50
2018-05-01T00:22:57.088Z,85.20
2018-05-01T00:25:32.669Z,84.70
2018-05-01T00:28:08.174Z,84.60
2018-05-01T00:30:43.414Z,83.90
2018-05-01T00:33:19.271Z,83.40
2018-05-01T00:35:55.536Z,80.90
2018-05-01T00:38:31.389Z,79.20
2018-05-01T00:41:25.878Z,77.40
2018-05-01T00:44:00.811Z,77.30
2018-05-01T00:46:36.257Z,77.50
2018-05-01T00:49:11.291Z,76.40
2018-05-01T00:51:46.534Z,76.10
2018-05-01T00:54:21.775Z,75.50
2018-05-01T00:56:58.239Z,77.00
2018-05-01T00:59:35.322Z,77.50
2018-05-01T01:02:10.565Z,77.50
2018-05-01T01:04:45.394Z,79.40
2018-05-01T01:07:20.633Z,80.70
2018-05-01T01:09:56.218Z,82.30
2018-05-01T01:12:31.317Z,83.50
2018-05-01T01:15:06.966Z,83.30
2018-05-01T01:17:42.219Z,84.40
2018-05-01T01:20:17.232Z,86.40
2018-05-01T01:22:52.689Z,87.60
2018-05-01T01:25:27.621Z,88.90
2018-05-01T01:28:03.173Z,90.10
2018-05-01T01:30:39.435Z,90.80
2018-05-01T01:33:15.224Z,90.80
2018-05-01T01:35:50.116Z,90.50
2018-05-01T01:38:24.956Z,90.40
2018-05-01T01:40:59.778Z,90.40
2018-05-01T01:43:34.610Z,90.40
2018-05-01T01:46:09.031Z,90.70
2018-05-01T01:48:43.862Z,90.60
2018-05-01T01:51:18.627Z,91.20
2018-05-01T01:53:53.928Z,91.70
2018-05-01T01:56:28.696Z,91.70
2018-05-01T01:59:04.202Z,92.40
2018-05-01T02:01:40.263Z,93.80
2018-05-01T02:04:15.303Z,93.70
2018-05-01T02:06:49.925Z,94.50
2018-05-01T02:09:24.754Z,95.20
2018-05-01T02:12:00.203Z,95.80
2018-05-01T02:14:36.055Z,96.40
2018-05-01T02:17:11.089Z,96.30
2018-05-01T02:19:45.714Z,97.00
2018-05-01T02:22:20.485Z,96.80
2018-05-01T02:24:56.193Z,96.80
2018-05-01T02:27:32.242Z,97.00
2018-05-01T02:30:07.082Z,97.00
2018-05-01T02:32:42.738Z,97.50
2018-05-01T02:35:17.493Z,97.40
2018-05-01T02:37:52.061Z,97.50
2018-05-01T02:40:26.817Z,97.80
2018-05-01T02:43:05.741Z,97.50
2018-05-01T02:45:41.596Z,97.40
2018-05-01T02:48:17.321Z,97.30
2018-05-01T02:50:52.644Z,97.20
2018-05-01T02:53:27.523Z,97.20
2018-05-01T02:56:04.408Z,97.90
2018-05-01T02:58:38.820Z,97.80
2018-05-01T03:01:13.860Z,97.90
2018-05-01T03:03:48.275Z,97.70
2018-05-01T03:06:22.489Z,97.60
2018-05-01T03:08:57.531Z,97.60
2018-05-01T03:11:32.559Z,97.10
2018-05-01T03:14:07.394Z,97.00
2018-05-01T03:16:42.428Z,96.90
2018-05-01T03:19:17.254Z,96.90
2018-05-01T03:21:52.291Z,96.90
2018-05-01T03:24:27.120Z,96.90
2018-05-01T03:27:02.158Z,96.70
2018-05-01T03:29:36.783Z,96.40
2018-05-01T03:32:12.418Z,95.60
2018-05-01T03:34:47.465Z,95.60
2018-05-01T03:37:21.886Z,95.10
2018-05-01T03:39:56.720Z,95.00
2018-05-01T03:42:31.547Z,94.80
2018-05-01T03:45:06.172Z,94.60
2018-05-01T03:47:41.005Z,94.20
2018-05-01T03:50:19.415Z,94.20
2018-05-01T03:52:55.168Z,93.70
2018-05-01T03:55:30.003Z,93.70
2018-05-01T03:58:04.624Z,93.60
2018-05-01T04:00:39.467Z,93.20
2018-05-01T04:03:14.286Z,93.30
2018-05-01T04:05:49.116Z,93.40
2018-05-01T04:08:23.946Z,93.30
2018-05-01T04:10:58.883Z,93.10
2018-05-01T04:13:33.400Z,93.00
2018-05-01T04:16:08.438Z,93.20
2018-05-01T04:18:43.677Z,93.30
2018-05-01T04:21:18.301Z,93.50
2018-05-01T04:23:52.519Z,94.00
2018-05-01T04:26:27.967Z,96.00
2018-05-01T04:29:02.522Z,96.00
2018-05-01T04:31:37.417Z,98.40
2018-05-01T04:34:12.249Z,99.90
2018-05-01T04:36:47.694Z,99.90
2018-05-01T04:39:22.535Z,99.90
2018-05-01T04:41:58.387Z,99.90
2018-05-01T04:44:33.628Z,99.90
2018-05-01T04:47:10.295Z,99.90
2018-05-01T04:49:46.147Z,99.90
2018-05-01T04:52:21.259Z,99.90
2018-05-01T04:54:56.218Z,99.90
2018-05-01T04:57:30.842Z,99.90
2018-05-01T05:00:05.672Z,99.90
2018-05-01T05:02:40.298Z,99.90
2018-05-01T05:05:15.336Z,99.90
2018-05-01T05:07:49.958Z,99.90
2018-05-01T05:10:24.996Z,99.90
2018-05-01T05:12:59.618Z,99.90
2018-05-01T05:15:34.386Z,99.90
2018-05-01T05:18:09.075Z,99.90
2018-05-01T05:20:45.337Z,99.90
2018-05-01T05:23:19.557Z,99.90
2018-05-01T05:25:55.203Z,99.90
2018-05-01T05:28:30.034Z,99.90
2018-05-01T05:31:05.478Z,99.90
2018-05-01T05:33:40.513Z,99.90
2018-05-01T05:36:16.167Z,99.90
2018-05-01T05:38:50.999Z,99.90
2018-05-01T05:41:25.524Z,99.90
2018-05-01T05:44:00.452Z,99.90
2018-05-01T05:46:36.508Z,99.90
2018-05-01T05:49:11.338Z,99.90
2018-05-01T05:51:46.173Z,99.90
2018-05-01T05:54:21.203Z,99.90
2018-05-01T05:56:56.037Z,99.90
2018-05-01T05:59:30.865Z,99.90
2018-05-01T06:02:06.104Z,99.90
2018-05-01T06:04:41.552Z,99.90
2018-05-01T06:07:16.237Z,99.90
2018-05-01T06:09:50.801Z,99.90
2018-05-01T06:12:25.425Z,99.90
2018-05-01T06:15:00.259Z,99.90
2018-05-01T06:17:34.685Z,99.90
2018-05-01T06:20:09.302Z,99.90
2018-05-01T06:22:44.134Z,99.90
2018-05-01T06:25:19.780Z,99.90
2018-05-01T06:27:54.615Z,99.90
2018-05-01T06:30:29.648Z,99.90
2018-05-01T06:33:04.889Z,99.90
2018-05-01T06:35:39.511Z,99.90
2018-05-01T06:38:14.138Z,99.90
2018-05-01T06:40:48.763Z,99.90
2018-05-01T06:43:24.617Z,99.90
2018-05-01T06:45:59.459Z,99.90
2018-05-01T06:48:34.073Z,99.90
2018-05-01T06:51:09.107Z,99.90
2018-05-01T06:53:43.938Z,99.90
2018-05-01T06:56:18.977Z,99.90
2018-05-01T06:58:55.190Z,99.90
2018-05-01T07:01:31.705Z,99.90
2018-05-01T07:04:06.132Z,99.90
2018-05-01T07:06:40.965Z,99.90
2018-05-01T07:09:15.995Z,99.90
2018-05-01T07:11:50.618Z,99.90
2018-05-01T07:14:25.651Z,99.90
2018-05-01T07:17:00.281Z,99.90
2018-05-01T07:19:36.136Z,99.90
2018-05-01T07:22:11.169Z,99.90
2018-05-01T07:24:45.792Z,99.90
2018-05-01T07:27:21.522Z,99.90
2018-05-01T07:29:56.479Z,99.90
2018-05-01T07:32:33.356Z,99.90
2018-05-01T07:35:09.311Z,99.90
2018-05-01T07:37:43.534Z,99.90
2018-05-01T07:40:17.884Z,99.90
2018-05-01T07:42:53.601Z,99.90
2018-05-01T07:45:29.451Z,99.90
2018-05-01T07:48:04.897Z,99.90
2018-05-01T07:50:39.931Z,99.90
2018-05-01T07:53:15.590Z,99.90
2018-05-01T07:55:50.206Z,99.90
2018-05-01T07:58:25.038Z,99.90
2018-05-01T08:00:59.867Z,99.90
2018-05-01T08:03:35.523Z,99.90
2018-05-01T08:06:10.757Z,99.90
2018-05-01T08:08:44.981Z,99.90
2018-05-01T08:11:19.198Z,99.90
2018-05-01T08:13:54.224Z,99.90
2018-05-01T08:16:29.843Z,99.90
2018-05-01T08:19:06.137Z,99.90
2018-05-01T08:21:41.996Z,99.90
2018-05-01T08:24:17.258Z,99.90
2018-05-01T08:26:51.857Z,99.90
2018-05-01T08:29:26.892Z,99.90
2018-05-01T08:32:01.516Z,99.90
2018-05-01T08:34:36.591Z,99.90
2018-05-01T08:37:11.395Z,99.90
2018-05-01T08:39:46.613Z,99.90
2018-05-01T08:42:25.549Z,99.90
2018-05-01T08:45:01.203Z,99.90
2018-05-01T08:47:37.136Z,99.90
2018-05-01T08:50:11.476Z,99.90
2018-05-01T08:52:46.197Z,99.90
2018-05-01T08:55:21.134Z,99.90
2018-05-01T08:57:55.964Z,99.90
2018-05-01T09:00:31.011Z,99.90
2018-05-01T09:03:05.632Z,99.90
2018-05-01T09:05:41.075Z,99.90
2018-05-01T09:08:16.313Z,99.90
2018-05-01T09:10:51.147Z,99.90
2018-05-01T09:13:25.970Z,99.90
2018-05-01T09:16:01.008Z,99.90
2018-05-01T09:18:36.245Z,99.90
2018-05-01T09:21:11.142Z,99.90
2018-05-01T09:23:46.110Z,99.90
2018-05-01T09:26:21.148Z,99.90
2018-05-01T09:28:56.263Z,99.90
2018-05-01T09:31:30.601Z,99.90
2018-05-01T09:34:05.647Z,99.90
2018-05-01T09:36:40.467Z,99.90
2018-05-01T09:39:15.297Z,99.90
2018-05-01T09:41:50.130Z,99.90
2018-05-01T09:44:24.753Z,99.90
2018-05-01T09:46:59.378Z,99.90
2018-05-01T09:49:35.033Z,99.90
2018-05-01T09:52:10.271Z,99.90
2018-05-01T09:54:46.943Z,99.90
2018-05-01T09:57:21.977Z,99.90
2018-05-01T09:59:57.433Z,99.90
2018-05-01T10:02:32.461Z,99.90
2018-05-01T10:05:08.924Z,99.90
2018-05-01T10:07:44.574Z,99.90
2018-05-01T10:10:20.972Z,99.90
2018-05-01T10:12:56.796Z,99.90
2018-05-01T10:15:32.650Z,99.90
2018-05-01T10:18:11.651Z,99.90
2018-05-01T10:20:47.811Z,99.90
2018-05-01T10:23:22.874Z,99.60
2018-05-01T10:25:58.117Z,99.90
2018-05-01T10:28:33.211Z,99.90
2018-05-01T10:31:08.184Z,99.90
2018-05-01T10:33:43.833Z,99.90
2018-05-01T10:36:23.354Z,99.90
2018-05-01T10:38:58.720Z,99.90
2018-05-01T10:41:33.649Z,99.10
2018-05-01T10:44:08.691Z,99.10
2018-05-01T10:46:44.751Z,98.80
2018-05-01T10:49:20.648Z,98.10
2018-05-01T10:51:57.272Z,96.10
2018-05-01T10:54:33.775Z,95.60
2018-05-01T10:57:08.974Z,95.60
2018-05-01T10:59:45.049Z,95.70
2018-05-01T11:02:23.556Z,96.20
2018-05-01T11:04:59.621Z,95.90
2018-05-01T11:07:35.268Z,95.60
2018-05-01T11:10:10.235Z,95.10
2018-05-01T11:12:45.130Z,95.40
2018-05-01T11:15:20.168Z,95.90
2018-05-01T11:17:54.996Z,96.50
2018-05-01T11:20:30.040Z,96.40
2018-05-01T11:23:05.220Z,96.70
2018-05-01T11:25:40.250Z,97.30
2018-05-01T11:28:15.361Z,97.70
2018-05-01T11:30:50.173Z,99.40
2018-05-01T11:33:26.845Z,98.60
2018-05-01T11:36:02.085Z,98.60
2018-05-01T11:38:38.698Z,92.80
2018-05-01T11:41:13.803Z,92.70
2018-05-01T11:43:49.171Z,91.60
2018-05-01T11:46:24.570Z,90.30
2018-05-01T11:48:59.456Z,85.30
2018-05-01T11:51:34.357Z,85.10
2018-05-01T11:54:09.382Z,86.70
2018-05-01T11:56:44.413Z,80.80
2018-05-01T11:59:19.244Z,73.20
2018-05-01T12:01:54.075Z,67.90
2018-05-01T12:04:29.152Z,63.10
2018-05-01T12:07:04.163Z,61.10
2018-05-01T12:09:39.384Z,57.90
2018-05-01T12:12:14.219Z,56.30
2018-05-01T12:14:49.213Z,55.80
2018-05-01T12:17:24.470Z,52.70
2018-05-01T12:20:00.149Z,52.40
2018-05-01T12:22:35.176Z,50.60
2018-05-01T12:25:10.570Z,51.20
2018-05-01T12:27:45.666Z,51.10
2018-05-01T12:30:21.305Z,50.30
2018-05-01T12:32:56.135Z,51.20
2018-05-01T12:35:31.170Z,50.50
2018-05-01T12:38:06.821Z,49.70
2018-05-01T12:40:41.848Z,50.30
2018-05-01T12:43:17.509Z,48.30
2018-05-01T12:45:52.541Z,50.20
2018-05-01T12:48:27.397Z,50.20
2018-05-01T12:51:02.610Z,49.90
2018-05-01T12:53:37.650Z,50.30
2018-05-01T12:56:12.893Z,50.40
2018-05-01T12:58:48.488Z,52.40
2018-05-01T13:01:23.979Z,55.20
2018-05-01T13:03:59.634Z,56.80
2018-05-01T13:06:35.485Z,58.40
2018-05-01T13:09:11.136Z,60.50
2018-05-01T13:11:46.170Z,62.10
2018-05-01T13:14:22.637Z,59.80
2018-05-01T13:16:58.083Z,59.70
2018-05-01T13:19:32.911Z,57.90
2018-05-01T13:22:08.357Z,55.10
2018-05-01T13:24:43.801Z,55.20
2018-05-01T13:27:19.099Z,55.40
2018-05-01T13:29:55.714Z,59.00
2018-05-01T13:32:31.239Z,59.00
2018-05-01T13:35:07.627Z,59.10
2018-05-01T13:37:45.324Z,58.90
2018-05-01T13:40:20.462Z,58.80
2018-05-01T13:42:56.314Z,58.50
2018-05-01T13:45:31.868Z,57.60
2018-05-01T13:48:07.105Z,59.00
2018-05-01T13:50:42.149Z,60.00
2018-05-01T13:53:19.222Z,59.30
2018-05-01T13:55:55.537Z,59.30
2018-05-01T13:58:31.749Z,59.30
2018-05-01T14:01:06.989Z,59.20
2018-05-01T14:03:42.230Z,58.00
2018-05-01T14:06:17.065Z,55.60
2018-05-01T14:08:52.199Z,55.40
2018-05-01T14:11:29.077Z,58.60
2018-05-01T14:14:05.136Z,58.50
2018-05-01T14:16:40.172Z,59.30
2018-05-01T14:19:15.550Z,58.60
2018-05-01T14:21:51.241Z,58.40
2018-05-01T14:24:26.483Z,59.70
2018-05-01T14:27:01.521Z,59.50
2018-05-01T14:29:37.371Z,58.70
2018-05-01T14:32:12.205Z,58.90
2018-05-01T14:34:47.855Z,59.50
2018-05-01T14:37:22.890Z,59.00
2018-05-01T14:39:57.719Z,59.00
2018-05-01T14:42:34.198Z,57.80
2018-05-01T14:45:10.668Z,57.70
2018-05-01T14:47:46.245Z,57.70
2018-05-01T14:50:22.168Z,58.20
2018-05-01T14:52:57.410Z,57.50
2018-05-01T14:55:32.445Z,58.50
2018-05-01T14:58:07.472Z,59.80
2018-05-01T15:00:42.298Z,59.40
2018-05-01T15:03:17.333Z,60.10
2018-05-01T15:05:52.509Z,61.10
2018-05-01T15:08:29.060Z,63.60
2018-05-01T15:11:05.027Z,63.10
2018-05-01T15:13:40.188Z,63.70
2018-05-01T15:16:15.786Z,64.40
2018-05-01T15:18:51.027Z,64.80
2018-05-01T15:21:27.299Z,62.60
2018-05-01T15:24:02.740Z,61.90
2018-05-01T15:26:39.616Z,62.70
2018-05-01T15:29:15.436Z,62.60
2018-05-01T15:31:51.535Z,73.40
2018-05-01T15:34:27.995Z,73.30
2018-05-01T15:37:03.660Z,80.30
2018-05-01T15:39:39.325Z,85.40
2018-05-01T15:42:14.533Z,88.00
2018-05-01T15:44:49.297Z,90.20
2018-05-01T15:47:24.296Z,92.30
2018-05-01T15:49:59.615Z,94.10
2018-05-01T15:52:35.298Z,95.90
2018-05-01T15:55:10.733Z,97.20
2018-05-01T15:57:45.770Z,98.50
2018-05-01T16:00:20.701Z,99.90
2018-05-01T16:02:56.658Z,99.90
2018-05-01T16:05:31.690Z,99.90
2018-05-01T16:08:08.370Z,99.90
2018-05-01T16:10:43.406Z,99.90
2018-05-01T16:13:19.115Z,99.90
2018-05-01T16:15:54.707Z,99.90
2018-05-01T16:18:30.967Z,99.90
2018-05-01T16:21:06.622Z,99.90
2018-05-01T16:23:41.651Z,99.90
2018-05-01T16:26:17.507Z,99.90
2018-05-01T16:28:52.949Z,99.90
2018-05-01T16:31:27.777Z,99.90
2018-05-01T16:34:03.376Z,99.90
2018-05-01T16:36:38.800Z,99.90
2018-05-01T16:39:14.112Z,99.90
2018-05-01T16:41:49.706Z,99.90
2018-05-01T16:44:24.594Z,99.90
2018-05-01T16:46:59.834Z,99.90
2018-05-01T16:49:36.508Z,99.90
2018-05-01T16:52:12.154Z,99.90
2018-05-01T16:54:48.221Z,99.90
2018-05-01T16:57:23.249Z,99.90
2018-05-01T16:59:59.460Z,99.90
2018-05-01T17:02:35.587Z,99.90
2018-05-01T17:05:11.430Z,99.90
2018-05-01T17:07:46.465Z,99.90
2018-05-01T17:10:21.500Z,99.90
2018-05-01T17:12:56.332Z,99.90
2018-05-01T17:15:32.180Z,99.90
2018-05-01T17:18:07.014Z,99.90
2018-05-01T17:20:42.864Z,99.90
2018-05-01T17:23:19.138Z,99.90
2018-05-01T17:25:54.992Z,99.90
2018-05-01T17:28:30.434Z,99.90
2018-05-01T17:31:06.488Z,99.90
2018-05-01T17:33:41.471Z,99.90
2018-05-01T17:36:16.971Z,99.90
2018-05-01T17:38:52.227Z,99.90
2018-05-01T17:41:27.455Z,99.90
2018-05-01T17:44:02.632Z,99.90
2018-05-01T17:46:37.930Z,99.90
2018-05-01T17:49:12.975Z,99.90
2018-05-01T17:51:49.024Z,99.90
2018-05-01T17:54:24.058Z,99.90
2018-05-01T17:56:59.437Z,99.90
2018-05-01T17:59:35.155Z,99.90
2018-05-01T18:02:10.806Z,99.90
2018-05-01T18:04:45.839Z,99.90
2018-05-01T18:07:20.670Z,99.90
2018-05-01T18:09:55.707Z,99.90
2018-05-01T18:12:31.403Z,99.90
2018-05-01T18:15:06.404Z,99.90
2018-05-01T18:17:41.424Z,99.90
2018-05-01T18:20:24.461Z,99.90
2018-05-01T18:22:59.493Z,99.90
2018-05-01T18:25:35.326Z,99.90
2018-05-01T18:28:10.175Z,99.90
2018-05-01T18:30:45.408Z,99.90
2018-05-01T18:33:20.444Z,99.90
2018-05-01T18:35:55.274Z,99.90
2018-05-01T18:38:30.716Z,99.90
2018-05-01T18:41:05.587Z,99.90
2018-05-01T18:43:47.951Z,99.90
2018-05-01T18:46:23.603Z,99.90
2018-05-01T18:49:00.690Z,99.90
2018-05-01T18:51:36.006Z,99.90
2018-05-01T18:54:11.779Z,99.90
2018-05-01T18:56:47.225Z,99.90
2018-05-01T18:59:23.282Z,99.90
2018-05-01T19:01:59.546Z,99.90
2018-05-01T19:04:34.968Z,99.90
2018-05-01T19:07:11.259Z,99.90
2018-05-01T19:09:47.940Z,99.90
2018-05-01T19:12:22.966Z,99.90
2018-05-01T19:14:58.003Z,99.90
2018-05-01T19:17:33.447Z,99.90
2018-05-01T19:20:09.108Z,99.90
2018-05-01T19:22:44.959Z,99.90
2018-05-01T19:25:20.117Z,99.90
2018-05-01T19:27:55.634Z,99.90
2018-05-01T19:30:31.899Z,99.90
2018-05-01T19:33:07.096Z,99.80
2018-05-01T19:35:43.620Z,98.70
2018-05-01T19:38:23.962Z,98.60
2018-05-01T19:41:02.845Z,98.40
2018-05-01T19:43:41.305Z,98.10
2018-05-01T19:46:16.157Z,98.20
2018-05-01T19:48:53.016Z,98.00
2018-05-01T19:51:29.649Z,98.10
2018-05-01T19:54:04.934Z,98.00
2018-05-01T19:56:41.343Z,98.00
2018-05-01T19:59:16.801Z,97.80
2018-05-01T20:01:52.086Z,97.90
2018-05-01T20:04:27.330Z,98.10
2018-05-01T20:07:02.569Z,98.00
2018-05-01T20:09:38.625Z,97.70
2018-05-01T20:12:14.076Z,98.10
2018-05-01T20:14:49.713Z,97.70
2018-05-01T20:17:26.419Z,98.10
2018-05-01T20:20:01.508Z,98.50
2018-05-01T20:22:36.461Z,98.50
2018-05-01T20:25:12.740Z,98.00
2018-05-01T20:27:48.182Z,98.00
2018-05-01T20:30:25.683Z,98.50
2018-05-01T20:33:01.106Z,98.50
2018-05-01T20:35:35.933Z,99.00
2018-05-01T20:38:15.479Z,99.90
2018-05-01T20:40:53.585Z,99.90
2018-05-01T20:43:29.401Z,99.90
2018-05-01T20:46:06.317Z,99.90
2018-05-01T20:48:42.310Z,99.90
2018-05-01T20:51:17.414Z,99.90
2018-05-01T20:53:53.264Z,99.90
2018-05-01T20:56:28.301Z,99.90
2018-05-01T20:59:03.538Z,99.90
2018-05-01T21:01:41.290Z,99.90
2018-05-01T21:04:19.068Z,99.90
2018-05-01T21:06:56.634Z,99.90
2018-05-01T21:09:31.610Z,99.90
2018-05-01T21:12:06.701Z,99.90
2018-05-01T21:14:41.735Z,99.90
2018-05-01T21:17:16.982Z,99.90
2018-05-01T21:19:52.015Z,99.90
2018-05-01T21:22:27.052Z,99.90
2018-05-01T21:25:02.286Z,99.90
2018-05-01T21:27:39.372Z,99.70
2018-05-01T21:30:21.171Z,99.70
2018-05-01T21:32:56.745Z,99.50
2018-05-01T21:35:32.257Z,99.30
2018-05-01T21:38:07.294Z,99.40
2018-05-01T21:40:42.126Z,99.30
2018-05-01T21:43:16.956Z,99.50
2018-05-01T21:45:52.135Z,99.90
2018-05-01T21:48:29.255Z,99.20
2018-05-01T21:51:04.925Z,99.20
2018-05-01T21:53:40.025Z,99.40
2018-05-01T21:56:15.261Z,98.20
2018-05-01T21:58:52.035Z,98.10
2018-05-01T22:01:27.827Z,98.10
2018-05-01T22:04:03.481Z,98.70
2018-05-01T22:06:38.517Z,98.80
2018-05-01T22:09:13.963Z,98.50
2018-05-01T22:11:49.340Z,98.70
2018-05-01T22:14:24.374Z,98.60
2018-05-01T22:16:59.685Z,97.20
2018-05-01T22:19:34.717Z,97.40
2018-05-01T22:22:10.161Z,97.20
2018-05-01T22:24:44.981Z,97.20
2018-05-01T22:27:20.229Z,97.60
2018-05-01T22:29:56.631Z,97.50
2018-05-01T22:32:32.144Z,97.20
2018-05-01T22:35:07.588Z,97.20
2018-05-01T22:37:43.588Z,97.70
2018-05-01T22:40:20.269Z,97.60
2018-05-01T22:42:55.361Z,97.70
2018-05-01T22:45:30.769Z,97.40
2018-05-01T22:48:07.001Z,97.00
2018-05-01T22:50:42.314Z,96.90
2018-05-01T22:53:17.613Z,97.30
2018-05-01T22:55:54.226Z,97.50
2018-05-01T22:58:30.501Z,97.30
2018-05-01T23:01:06.423Z,97.40
2018-05-01T23:03:41.734Z,97.50
2018-05-01T23:06:17.252Z,97.50
2018-05-01T23:08:52.483Z,98.20
2018-05-01T23:11:28.325Z,99.00
2018-05-01T23:14:04.172Z,99.80
2018-05-01T23:16:39.412Z,99.90
2018-05-01T23:19:15.243Z,99.90
2018-05-01T23:21:51.307Z,99.90
2018-05-01T23:24:28.206Z,99.90
2018-05-01T23:27:03.401Z,99.90
2018-05-01T23:29:39.425Z,99.90
2018-05-01T23:32:14.915Z,99.90
2018-05-01T23:34:50.701Z,99.90
2018-05-01T23:37:25.674Z,99.90
2018-05-01T23:40:01.115Z,99.90
2018-05-01T23:42:36.010Z,99.60
2018-05-01T23:45:11.845Z,99.90
2018-05-01T23:47:47.604Z,99.90
2018-05-01T23:50:23.078Z,99.90
2018-05-01T23:53:01.083Z,99.90
2018-05-01T23:55:37.437Z,99.80
2018-05-01T23:58:14.675Z,99.90
